Time;durP1;ratioP1;P1;durP2;ratioP2;P2;SDS_P1;SDS_P2;PMS_P1;PMS_P2;Temp;Humidity;BMP_temperature;BMP_pressure;BME280_temperature;BME280_humidity;BME280_pressure;Samples;Min_cycle;Max_cycle;Signal;HPM_P1;HPM_P2
2024/02/15 00:01:00;;;;;;;10.70;5.53;;;;;;;-9.50;68.05;100368.56;4991965;28;20504;-62
2024/02/15 00:03:26;;;;;;;9.93;5.80;;;;;;;-9.56;67.47;100378.31;4974564;28;20057;-63
2024/02/15 00:05:52;;;;;;;8.80;5.43;;;;;;;-9.68;68.41;100375.53;4991703;28;20101;-63
2024/02/15 00:08:20;;;;;;;10.48;5.60;;;;;;;-9.74;69.41;100375.84;4991970;28;20046;-62
2024/02/15 00:10:46;;;;;;;13.15;5.13;;;;;;;-9.78;68.69;100376.13;4990533;28;20069;-62
2024/02/15 00:13:15;;;;;;;8.85;5.15;;;;;;;-9.75;69.22;100373.38;4992087;28;20191;-60
2024/02/15 00:15:41;;;;;;;9.35;4.43;;;;;;;-9.85;68.63;100373.91;4991797;28;20066;-60
2024/02/15 00:18:07;;;;;;;15.55;5.15;;;;;;;-9.90;69.24;100359.66;4991187;28;20101;-61
2024/02/15 00:20:36;;;;;;;10.00;5.57;;;;;;;-9.88;68.13;100352.69;4990855;28;20034;-62
2024/02/15 00:23:01;;;;;;;12.60;6.13;;;;;;;-9.94;68.55;100359.00;4991979;28;20050;-62
2024/02/15 00:25:27;;;;;;;11.43;5.18;;;;;;;-9.97;68.51;100348.91;4991776;28;20046;-62
2024/02/15 00:27:53;;;;;;;7.05;4.60;;;;;;;-10.03;68.78;100356.91;4991821;28;20039;-61
2024/02/15 00:30:19;;;;;;;8.13;5.10;;;;;;;-10.20;69.18;100347.56;4990333;28;20046;-64
2024/02/15 00:32:47;;;;;;;12.68;5.68;;;;;;;-10.13;68.92;100351.44;4995044;28;20050;-62
2024/02/15 00:35:13;;;;;;;10.07;4.90;;;;;;;-10.10;68.94;100353.03;4996991;28;20185;-62
2024/02/15 00:37:42;;;;;;;8.38;4.65;;;;;;;-10.10;68.75;100345.34;4998010;28;20471;-62
2024/02/15 00:40:08;;;;;;;8.32;5.75;;;;;;;-10.10;69.05;100345.34;4996896;28;20041;-61
2024/02/15 00:42:34;;;;;;;13.27;5.10;;;;;;;-10.15;68.97;100337.88;5013152;28;20057;-62
2024/02/15 00:45:00;;;;;;;9.27;5.25;;;;;;;-10.23;69.21;100339.19;4996730;28;20038;-63
2024/02/15 00:47:25;;;;;;;12.00;5.22;;;;;;;-10.06;69.68;100341.69;5013006;28;20054;-62
2024/02/15 00:49:51;;;;;;;10.20;6.68;;;;;;;-9.96;70.07;100342.03;4996574;28;20089;-63
2024/02/15 00:52:20;;;;;;;9.90;6.05;;;;;;;-10.00;69.21;100343.09;4996842;28;20046;-62
2024/02/15 00:54:46;;;;;;;8.60;5.55;;;;;;;-9.93;69.36;100337.56;4996648;28;20046;-62
2024/02/15 00:57:12;;;;;;;7.43;4.55;;;;;;;-9.96;69.48;100340.28;4996463;28;20061;-62
2024/02/15 00:59:37;;;;;;;9.15;5.32;;;;;;;-9.90;69.35;100339.13;5012956;28;20038;-61
2024/02/15 01:02:05;;;;;;;8.23;5.05;;;;;;;-9.87;69.31;100344.91;5012758;28;20053;-62
2024/02/15 01:04:31;;;;;;;7.55;4.50;;;;;;;-10.06;69.11;100334.00;4996925;28;20038;-62
2024/02/15 01:06:56;;;;;;;13.73;4.05;;;;;;;-10.16;68.84;100335.41;4997832;28;20145;-62
2024/02/15 01:09:22;;;;;;;9.15;4.78;;;;;;;-10.26;68.74;100336.81;4996863;28;20042;-61
2024/02/15 01:11:49;;;;;;;6.93;3.90;;;;;;;-10.30;69.68;100328.47;4996674;28;20076;-61
2024/02/15 01:14:15;;;;;;;11.15;4.97;;;;;;;-10.18;69.64;100325.22;4998719;28;20393;-59
2024/02/15 01:16:41;;;;;;;10.02;5.00;;;;;;;-10.15;69.77;100321.66;4996776;28;20434;-61
2024/02/15 01:19:07;;;;;;;9.60;4.97;;;;;;;-10.18;69.13;100332.09;4998533;28;20073;-63
2024/02/15 01:21:33;;;;;;;14.30;5.55;;;;;;;-10.15;69.86;100334.47;4997117;28;20046;-63
2024/02/15 01:24:00;;;;;;;11.48;5.45;;;;;;;-9.98;70.20;100336.16;4998482;28;20038;-62
2024/02/15 01:26:27;;;;;;;10.10;5.50;;;;;;;-9.96;69.36;100332.59;4998264;28;20040;-61
2024/02/15 01:28:53;;;;;;;7.00;4.32;;;;;;;-10.13;68.53;100323.25;5012868;28;20050;-61
2024/02/15 01:31:18;;;;;;;4.93;3.40;;;;;;;-10.10;69.27;100340.22;4998276;28;20049;-60
2024/02/15 01:33:48;;;;;;;13.38;6.57;;;;;;;-9.95;69.75;100334.25;4998309;28;20053;-63
2024/02/15 01:36:18;;;;;;;16.33;6.47;;;;;;;-9.83;68.98;100331.00;4998027;28;20039;-62
2024/02/15 01:38:44;;;;;;;;;;;;;;;-9.78;69.35;100328.19;4998778;28;20053;-62
2024/02/15 01:41:09;;;;;;;11.68;5.70;;;;;;;-9.73;69.27;100331.34;5013127;28;19922;-64
2024/02/15 01:43:35;;;;;;;12.57;6.25;;;;;;;-9.75;68.10;100333.16;5011344;28;20133;-62
2024/02/15 01:46:09;;;;;;;13.93;7.30;;;;;;;-9.59;70.17;100328.00;4993459;28;20534;-61
2024/02/15 01:48:37;;;;;;;17.85;7.80;;;;;;;-9.54;69.64;100330.31;4995301;28;20078;-62
2024/02/15 01:51:03;;;;;;;11.57;5.32;;;;;;;-9.63;67.67;100326.53;4994813;28;20034;-61
2024/02/15 01:53:30;;;;;;;12.30;5.88;;;;;;;-9.64;68.31;100327.44;4993576;28;20587;-63
2024/02/15 01:55:57;;;;;;;11.65;5.93;;;;;;;-9.53;68.97;100331.94;4993837;28;20452;-61
2024/02/15 01:58:25;;;;;;;19.70;9.32;;;;;;;-9.46;69.24;100325.59;4994489;28;20058;-60
2024/02/15 02:00:51;;;;;;;14.45;6.38;;;;;;;-9.42;68.29;100334.75;4993565;28;20073;-62
2024/02/15 02:03:17;;;;;;;13.18;6.00;;;;;;;-9.47;68.68;100342.72;4994735;28;20073;-62
2024/02/15 02:05:43;;;;;;;12.68;6.30;;;;;;;-9.32;69.44;100337.63;4993239;28;20093;-63
2024/02/15 02:08:10;;;;;;;9.45;5.22;;;;;;;-9.18;69.42;100338.47;5009303;28;20054;-61
2024/02/15 02:10:39;;;;;;;10.57;5.10;;;;;;;-9.33;67.83;100320.56;4993476;28;20065;-64
2024/02/15 02:13:05;;;;;;;7.40;4.32;;;;;;;-9.42;68.14;100330.44;4994590;28;20097;-62
2024/02/15 02:15:32;;;;;;;9.57;5.15;;;;;;;-9.31;68.24;100331.59;4994487;28;20129;-63
2024/02/15 02:18:00;;;;;;;8.75;5.35;;;;;;;-9.36;67.32;100326.69;4994471;28;20054;-62
2024/02/15 02:20:26;;;;;;;11.38;5.47;;;;;;;-9.48;67.75;100335.09;4994441;28;20595;-61
2024/02/15 02:22:57;;;;;;;9.35;5.45;;;;;;;-9.41;67.13;100339.81;4976750;28;20050;-61
2024/02/15 02:25:27;;;;;;;10.18;5.57;;;;;;;-9.45;67.24;100337.50;4977267;28;20453;-62
2024/02/15 02:27:53;;;;;;;12.20;5.88;;;;;;;-9.45;67.58;100330.59;4992646;28;20411;-62
2024/02/15 02:30:22;;;;;;;14.90;5.85;;;;;;;-9.49;67.47;100334.28;4992674;28;20038;-62
2024/02/15 02:32:48;;;;;;;8.52;5.30;;;;;;;-9.40;67.48;100336.31;4992696;28;20054;-62
2024/02/15 02:35:15;;;;;;;11.95;5.65;;;;;;;-9.39;67.38;100340.53;4994282;28;20042;-62
2024/02/15 02:37:42;;;;;;;13.20;6.72;;;;;;;-9.47;68.09;100339.31;4992593;28;20508;-61
2024/02/15 02:40:09;;;;;;;13.70;6.32;;;;;;;-9.43;67.75;100346.75;4994164;28;20046;-60
2024/02/15 02:42:58;;;;;;;13.63;6.85;;;;;;;-9.41;67.12;100339.81;4993797;28;20042;-61
2024/02/15 02:45:25;;;;;;;11.47;5.10;;;;;;;-9.33;67.49;100331.66;4992649;28;20417;-61
2024/02/15 02:47:51;;;;;;;15.15;7.40;;;;;;;-9.30;67.61;100335.78;4992583;28;20053;-62
2024/02/15 02:50:17;;;;;;;9.57;5.40;;;;;;;-9.33;66.89;100329.09;4994008;28;20416;-62
2024/02/15 02:52:44;;;;;;;12.50;5.43;;;;;;;-9.38;67.64;100338.81;4992617;28;20046;-62
2024/02/15 02:55:09;;;;;;;13.98;6.57;;;;;;;-9.46;68.15;100344.38;4993678;28;20053;-62
2024/02/15 02:57:38;;;;;;;12.73;6.40;;;;;;;-9.48;67.89;100341.06;4992488;28;20416;-62
2024/02/15 03:00:10;;;;;;;12.48;6.57;;;;;;;-9.42;68.67;100348.41;5008548;28;20044;-61
2024/02/15 03:02:37;;;;;;;12.90;6.50;;;;;;;-9.35;67.25;100348.06;4976844;28;20062;-62
2024/02/15 03:05:04;;;;;;;11.25;6.55;;;;;;;-9.43;67.24;100357.03;4992228;28;20053;-62
2024/02/15 03:07:33;;;;;;;12.30;7.13;;;;;;;-9.49;68.22;100359.13;4993416;28;20075;-62
2024/02/15 03:10:08;;;;;;;9.95;6.20;;;;;;;-9.61;67.55;100352.94;4992007;28;20062;-62
2024/02/15 03:12:37;;;;;;;8.90;5.00;;;;;;;-9.80;68.16;100345.41;4993505;28;20069;-60
2024/02/15 03:15:04;;;;;;;16.05;6.40;;;;;;;-9.83;68.90;100355.84;4992968;28;20042;-62
2024/02/15 03:17:33;;;;;;;14.40;7.05;;;;;;;-9.72;68.55;100358.66;4993160;28;20101;-63
2024/02/15 03:19:59;;;;;;;17.33;7.22;;;;;;;-9.74;68.91;100355.31;4991491;28;20038;-62
2024/02/15 03:22:25;;;;;;;12.30;7.05;;;;;;;-9.67;68.37;100360.97;4993057;28;20046;-62
2024/02/15 03:24:52;;;;;;;12.43;7.53;;;;;;;-9.75;67.47;100360.56;5007906;28;20077;-61
2024/02/15 03:27:18;;;;;;;9.77;5.22;;;;;;;-9.94;67.65;100359.00;5007591;28;20050;-62
2024/02/15 03:29:43;;;;;;;15.55;7.28;;;;;;;-9.86;68.43;100361.13;4991232;28;20042;-63
2024/02/15 03:32:10;;;;;;;22.95;12.10;;;;;;;-9.85;68.01;100357.69;4991486;28;20531;-62
2024/02/15 03:34:39;;;;;;;13.50;6.13;;;;;;;-9.87;68.77;100362.88;4991498;28;20440;-61
2024/02/15 03:37:05;;;;;;;14.70;6.47;;;;;;;-9.83;70.06;100368.66;4992548;28;20100;-63
2024/02/15 03:39:32;;;;;;;8.80;5.50;;;;;;;-9.96;67.80;100371.06;4993151;28;20385;-63
2024/02/15 03:41:58;;;;;;;14.00;6.95;;;;;;;-10.02;68.03;100375.72;4991399;28;20050;-62
2024/02/15 03:44:25;;;;;;;11.85;6.38;;;;;;;-10.04;68.53;100374.94;4992830;28;20045;-62
2024/02/15 03:46:53;;;;;;;11.80;6.07;;;;;;;-10.02;69.24;100370.59;4992584;28;20041;-63
2024/02/15 03:49:19;;;;;;;14.07;6.68;;;;;;;-10.04;69.35;100368.09;4992708;28;20046;-63
2024/02/15 03:51:45;;;;;;;13.93;6.55;;;;;;;-10.00;69.85;100361.03;4992550;28;20133;-62
2024/02/15 03:54:14;;;;;;;10.77;5.60;;;;;;;-9.93;69.45;100370.09;4975027;28;20133;-63
2024/02/15 03:56:52;;;;;;;9.25;6.07;;;;;;;-9.75;70.26;100379.34;5007549;28;20046;-62
2024/02/15 03:59:26;;;;;;;8.82;5.43;;;;;;;-9.82;68.58;100367.78;5007435;28;20046;-62
2024/02/15 04:01:56;;;;;;;9.00;5.72;;;;;;;-9.97;67.80;100364.28;4992658;28;20053;-62
2024/02/15 04:04:25;;;;;;;10.07;5.32;;;;;;;-10.25;68.44;100369.22;4975371;28;20052;-62
2024/02/15 04:06:51;;;;;;;13.18;6.38;;;;;;;-10.28;69.52;100367.69;4991545;28;20068;-63
2024/02/15 04:09:18;;;;;;;16.95;6.55;;;;;;;-10.19;70.24;100381.72;4991367;28;20141;-60
2024/02/15 04:11:47;;;;;;;10.98;6.13;;;;;;;-10.09;70.67;100370.91;4991006;28;20082;-63
2024/02/15 04:14:13;;;;;;;11.93;5.82;;;;;;;-9.98;70.50;100372.88;4975130;28;20045;-67
2024/02/15 04:16:39;;;;;;;12.57;6.72;;;;;;;-9.88;69.84;100376.63;4992167;28;20038;-62
2024/02/15 04:19:05;;;;;;;11.07;5.25;;;;;;;-9.83;69.91;100376.34;5007274;28;20039;-61
2024/02/15 04:21:30;;;;;;;14.68;6.25;;;;;;;-9.77;69.69;100368.31;4990811;28;20133;-62
2024/02/15 04:23:56;;;;;;;15.25;6.55;;;;;;;-9.82;69.06;100372.91;4990992;28;20512;-60
2024/02/15 04:26:26;;;;;;;11.25;6.28;;;;;;;-9.72;70.15;100373.22;4992373;28;20063;-64
2024/02/15 04:28:53;;;;;;;13.15;6.28;;;;;;;-9.70;68.65;100377.34;4992245;28;20058;-60
2024/02/15 04:31:19;;;;;;;12.45;5.93;;;;;;;-9.77;68.91;100375.19;4991036;28;20046;-63
2024/02/15 04:33:44;;;;;;;12.70;6.60;;;;;;;-9.71;70.47;100377.44;5007134;28;20077;-62
2024/02/15 04:36:11;;;;;;;14.32;6.43;;;;;;;-9.78;69.60;100376.13;4988917;28;20505;-60
2024/02/15 04:38:39;;;;;;;16.00;6.97;;;;;;;-9.70;69.29;100382.50;4992021;28;20045;-61
2024/02/15 04:41:08;;;;;;;12.48;6.57;;;;;;;-9.65;69.45;100387.34;4985522;28;20053;-59
2024/02/15 04:43:35;;;;;;;10.70;5.97;;;;;;;-9.76;69.34;100384.53;4986747;28;20049;-61
2024/02/15 04:46:02;;;;;;;14.30;6.97;;;;;;;-9.74;69.13;100382.72;4970149;28;20301;-60
2024/02/15 04:48:29;;;;;;;8.20;5.55;;;;;;;-9.72;68.71;100378.34;4970293;28;20049;-60
2024/02/15 04:50:59;;;;;;;11.77;5.65;;;;;;;-9.82;67.97;100398.56;4970940;28;20089;-60
2024/02/15 04:53:25;;;;;;;10.10;6.35;;;;;;;-9.89;69.17;100394.66;4987616;28;20385;-61
2024/02/15 04:55:50;;;;;;;10.38;6.07;;;;;;;-9.71;70.65;100395.41;4954945;28;20053;-62
2024/02/15 04:58:16;;;;;;;9.52;5.15;;;;;;;-9.76;68.57;100394.81;4972544;28;20051;-60
2024/02/15 05:00:42;;;;;;;14.75;6.13;;;;;;;-9.73;69.74;100398.06;4972278;28;20195;-60
2024/02/15 05:03:07;;;;;;;14.43;6.95;;;;;;;-9.75;68.71;100392.16;4970653;28;20061;-59
2024/02/15 05:05:33;;;;;;;11.80;6.47;;;;;;;-9.81;70.11;100400.19;4972348;28;20035;-61
2024/02/15 05:08:01;;;;;;;7.68;4.78;;;;;;;-9.95;69.28;100406.06;4972036;28;20057;-61
2024/02/15 05:10:27;;;;;;;17.50;7.95;;;;;;;-9.93;69.49;100406.00;4992992;28;20053;-61
2024/02/15 05:12:53;;;;;;;17.35;6.60;;;;;;;-9.91;69.36;100412.69;5006778;28;20492;-62
2024/02/15 05:15:22;;;;;;;21.35;7.80;;;;;;;-9.72;70.42;100411.72;4991577;28;20503;-60
2024/02/15 05:17:48;;;;;;;25.95;11.57;;;;;;;-9.65;69.57;100423.28;4991680;28;20050;-59
2024/02/15 05:20:15;;;;;;;17.63;7.28;;;;;;;-9.69;69.05;100421.81;4992633;28;20047;-60
2024/02/15 05:22:44;;;;;;;12.90;6.25;;;;;;;-9.70;69.08;100418.41;4995238;28;20100;-60
2024/02/15 05:25:12;;;;;;;15.48;7.85;;;;;;;-9.61;69.05;100432.50;4993838;28;20566;-59
2024/02/15 05:27:38;;;;;;;10.25;6.10;;;;;;;-9.54;69.28;100435.53;4993780;28;20062;-58
2024/02/15 05:30:08;;;;;;;15.00;7.75;;;;;;;-9.49;69.17;100441.28;4995248;28;20052;-59
2024/02/15 05:32:41;;;;;;;11.82;6.38;;;;;;;-9.50;67.93;100444.72;4995383;28;20508;-59
2024/02/15 05:35:09;;;;;;;10.93;5.70;;;;;;;-9.50;67.94;100449.84;4994919;28;20519;-59
2024/02/15 05:37:34;;;;;;;10.48;5.30;;;;;;;-9.52;68.14;100454.28;4994783;28;20047;-62
2024/02/15 05:40:00;;;;;;;11.82;6.18;;;;;;;-9.55;67.95;100451.88;4993594;28;20050;-63
2024/02/15 05:42:26;;;;;;;13.57;6.68;;;;;;;-9.52;67.96;100451.69;4994343;28;20129;-62
2024/02/15 05:44:52;;;;;;;10.30;6.20;;;;;;;-9.42;68.13;100457.97;4993329;28;20046;-63
2024/02/15 05:47:19;;;;;;;13.63;6.22;;;;;;;-9.39;68.67;100452.69;4992693;28;20039;-63
2024/02/15 05:49:47;;;;;;;14.30;6.68;;;;;;;-9.38;67.68;100450.03;4975160;28;20052;-62
2024/02/15 05:52:12;;;;;;;17.33;6.88;;;;;;;-9.37;67.71;100464.53;4992394;28;20069;-62
2024/02/15 05:54:41;;;;;;;12.70;6.35;;;;;;;-9.30;67.68;100461.63;4974991;28;20508;-63
2024/02/15 05:57:07;;;;;;;12.48;6.57;;;;;;;-9.37;67.33;100456.00;4991267;28;20145;-62
2024/02/15 05:59:33;;;;;;;13.43;6.70;;;;;;;-9.32;68.35;100461.72;4994514;28;20117;-63
2024/02/15 06:01:58;;;;;;;14.30;6.72;;;;;;;-9.26;66.79;100458.81;4994746;28;20043;-62
2024/02/15 06:04:26;;;;;;;11.80;5.90;;;;;;;-9.16;67.39;100466.81;4994711;28;20042;-64
2024/02/15 06:06:53;;;;;;;13.32;5.72;;;;;;;-9.23;66.29;100466.34;5009282;28;20062;-63
2024/02/15 06:09:21;;;;;;;12.13;6.15;;;;;;;-9.29;67.73;100463.25;4994081;28;20076;-62
2024/02/15 06:11:47;;;;;;;14.32;6.35;;;;;;;-9.08;68.02;100469.81;4993241;28;20049;-62
2024/02/15 06:14:13;;;;;;;13.15;6.18;;;;;;;-8.96;67.96;100466.53;4994269;28;20125;-65
2024/02/15 06:16:44;;;;;;;14.05;7.10;;;;;;;-8.95;66.58;100457.91;5009488;28;20078;-63
2024/02/15 06:19:09;;;;;;;13.73;7.07;;;;;;;-8.88;66.43;100462.69;4992725;28;20050;-63
2024/02/15 06:21:35;;;;;;;16.88;8.05;;;;;;;-8.80;67.88;100461.34;4991945;28;20038;-64
2024/02/15 06:24:00;;;;;;;22.90;8.65;;;;;;;-8.81;65.91;100464.03;4993172;28;20142;-64
2024/02/15 06:26:26;;;;;;;27.52;9.05;;;;;;;-8.87;64.86;100466.94;4976932;28;20061;-64
2024/02/15 06:39:49;;;;;;;18.40;8.05;;;;;;;-8.89;64.69;100458.50;5003886;28;20034;-64
2024/02/15 06:42:17;;;;;;;15.00;7.75;;;;;;;-8.77;65.57;100470.63;4973187;28;20060;-60
2024/02/15 06:44:46;;;;;;;15.20;7.05;;;;;;;-8.75;65.19;100467.06;4988585;28;20042;-61
2024/02/15 06:47:12;;;;;;;14.40;6.43;;;;;;;-8.64;65.60;100473.34;4972256;28;20520;-60
2024/02/15 06:49:43;;;;;;;17.20;7.53;;;;;;;-8.49;65.94;100477.59;4979478;28;20397;-62
2024/02/15 06:52:11;;;;;;;14.23;6.80;;;;;;;-8.65;66.14;100471.69;4992096;28;20042;-61
2024/02/15 06:54:40;;;;;;;11.60;6.28;;;;;;;-8.69;64.63;100474.41;5008021;28;20049;-61
2024/02/15 06:57:06;;;;;;;13.45;7.45;;;;;;;-8.64;64.97;100479.31;4991851;28;20520;-61
2024/02/15 06:59:32;;;;;;;16.23;7.13;;;;;;;-8.59;64.85;100479.03;4991447;28;20043;-61
2024/02/15 07:01:59;;;;;;;20.13;8.20;;;;;;;-8.43;64.94;100482.38;4991977;28;20042;-62
2024/02/15 07:04:25;;;;;;;19.33;9.32;;;;;;;-8.31;65.84;100470.53;4992555;28;20073;-62
2024/02/15 07:06:54;;;;;;;15.63;8.43;;;;;;;-8.26;64.83;100468.53;4991467;28;20058;-61
2024/02/15 07:09:24;;;;;;;17.23;7.47;;;;;;;-8.25;65.15;100468.41;4991181;28;20042;-61
2024/02/15 07:11:53;;;;;;;15.68;7.60;;;;;;;-8.10;65.38;100476.16;4992603;28;20042;-61
2024/02/15 07:14:19;;;;;;;11.55;6.55;;;;;;;-7.91;64.31;100481.00;4992477;28;20034;-62
2024/02/15 07:16:49;;;;;;;14.85;7.20;;;;;;;-7.82;63.46;100476.16;5007716;28;20092;-61
2024/02/15 07:19:15;;;;;;;15.25;7.63;;;;;;;-7.67;63.60;100483.88;4991192;28;20412;-59
2024/02/15 07:21:41;;;;;;;15.77;8.23;;;;;;;-7.71;62.86;100477.22;4992821;28;20129;-60
2024/02/15 07:24:07;;;;;;;13.10;7.43;;;;;;;-7.74;62.78;100470.53;4991396;28;20644;-61
2024/02/15 07:26:35;;;;;;;16.30;7.18;;;;;;;-7.57;62.71;100483.19;4975302;28;20137;-60
2024/02/15 07:29:00;;;;;;;12.85;7.03;;;;;;;-7.63;61.54;100481.00;4993143;28;20685;-60
2024/02/15 07:31:29;;;;;;;19.45;8.05;;;;;;;-7.44;62.81;100485.00;4993337;28;20050;-65
2024/02/15 07:33:55;;;;;;;13.88;7.43;;;;;;;-7.35;62.73;100485.28;4992509;28;20106;-61
2024/02/15 07:36:23;;;;;;;14.60;7.65;;;;;;;-7.20;62.02;100491.22;4993159;28;20519;-59
2024/02/15 07:38:50;;;;;;;19.08;8.07;;;;;;;-7.17;61.13;100477.31;4972488;28;20051;-62
2024/02/15 07:41:19;;;;;;;11.82;6.80;;;;;;;-7.22;60.44;100492.22;4991483;28;20073;-61
2024/02/15 07:43:46;;;;;;;15.52;7.68;;;;;;;-7.19;60.52;100499.78;4991087;28;20054;-60
2024/02/15 07:46:14;;;;;;;13.32;6.50;;;;;;;-7.13;61.41;100492.47;4992701;28;20049;-58
2024/02/15 07:48:45;;;;;;;11.93;6.85;;;;;;;-7.10;61.08;100504.34;4990813;28;20504;-60
2024/02/15 07:51:20;;;;;;;15.82;6.82;;;;;;;-7.10;60.86;100496.59;4991249;28;20043;-61
2024/02/15 07:53:46;;;;;;;13.77;7.10;;;;;;;-7.03;59.77;100505.59;4991237;28;20046;-61
2024/02/15 07:56:13;;;;;;;14.77;7.35;;;;;;;-7.01;59.59;100505.50;4991177;28;20088;-59
2024/02/15 07:58:48;;;;;;;16.88;7.95;;;;;;;-6.93;59.63;100516.16;4991003;28;20046;-56
2024/02/15 08:01:24;;;;;;;16.83;7.40;;;;;;;-6.80;58.88;100514.44;4975853;28;20038;-59
2024/02/15 08:03:52;;;;;;;24.95;8.55;;;;;;;-6.75;59.05;100504.66;4974348;28;20061;-59
2024/02/15 08:06:19;;;;;;;20.58;8.70;;;;;;;-6.83;58.55;100512.06;4990830;28;20038;-57
2024/02/15 08:08:47;;;;;;;19.25;8.15;;;;;;;-6.74;58.41;100508.06;4992315;28;20524;-60
2024/02/15 08:11:15;;;;;;;14.75;7.97;;;;;;;-6.69;57.88;100506.84;5006913;28;20051;-59
2024/02/15 08:13:45;;;;;;;22.67;8.63;;;;;;;-6.67;59.13;100511.94;4990972;28;20042;-57
2024/02/15 08:16:12;;;;;;;16.63;7.90;;;;;;;-6.67;58.42;100512.75;4990673;28;20045;-62
2024/02/15 08:18:39;;;;;;;17.27;8.63;;;;;;;-6.55;58.52;100510.31;4974437;28;20057;-61
2024/02/15 08:21:05;;;;;;;16.73;7.88;;;;;;;-6.87;57.04;100511.44;4991772;28;20043;-59
2024/02/15 08:23:32;;;;;;;15.23;8.13;;;;;;;-6.69;59.32;100516.34;4974573;28;20065;-59
2024/02/15 08:25:58;;;;;;;25.40;8.73;;;;;;;-6.66;58.24;100514.38;4990508;28;20053;-61
2024/02/15 08:28:24;;;;;;;20.02;8.63;;;;;;;-6.82;57.52;100513.75;4992119;28;20046;-59
2024/02/15 08:30:52;;;;;;;21.35;8.75;;;;;;;-6.69;59.25;100512.00;4974056;28;20065;-62
2024/02/15 08:33:19;;;;;;;19.60;8.60;;;;;;;-6.64;58.08;100509.97;4992038;28;20065;-59
2024/02/15 08:35:44;;;;;;;17.33;8.13;;;;;;;-6.87;57.57;100515.78;4991886;28;20050;-61
2024/02/15 08:38:10;;;;;;;19.85;7.82;;;;;;;-6.81;58.53;100519.72;4987309;28;20050;-60
2024/02/15 08:40:36;;;;;;;17.23;8.15;;;;;;;-6.75;58.78;100512.41;5001362;28;20057;-62
2024/02/15 08:43:02;;;;;;;21.05;8.13;;;;;;;-6.84;58.34;100520.72;4991927;28;20132;-60
2024/02/15 08:45:28;;;;;;;15.32;7.93;;;;;;;-6.98;58.82;100519.03;4991399;28;20188;-61
2024/02/15 08:47:53;;;;;;;14.10;7.85;;;;;;;-6.96;59.18;100514.59;4990187;28;20133;-61
2024/02/15 08:50:22;;;;;;;19.42;7.43;;;;;;;-7.10;58.70;100505.16;5006451;28;20042;-62
2024/02/15 08:52:48;;;;;;;20.98;8.07;;;;;;;-7.00;58.79;100513.16;4991619;28;20042;-61
2024/02/15 08:55:14;;;;;;;19.67;9.70;;;;;;;-6.85;59.72;100524.25;5010558;28;20540;-60
2024/02/15 08:57:40;;;;;;;18.75;9.18;;;;;;;-7.00;59.14;100517.47;4995690;28;20332;-62
2024/02/15 09:00:13;;;;;;;20.60;8.68;;;;;;;-6.99;59.18;100511.41;4995372;28;20121;-63
2024/02/15 09:02:43;;;;;;;19.98;8.77;;;;;;;-6.77;58.57;100509.09;4994099;28;20075;-63
2024/02/15 09:05:09;;;;;;;;;;;;;;;-6.74;57.85;100518.38;4995769;28;20046;-63
2024/02/15 09:07:36;;;;;;;15.55;7.32;;;;;;;-6.61;58.93;100515.88;4995378;28;20401;-62
2024/02/15 09:10:03;;;;;;;19.95;8.57;;;;;;;-6.59;58.46;100517.38;4994942;28;20504;-63
2024/02/15 09:12:31;;;;;;;15.07;8.18;;;;;;;-6.83;57.45;100513.81;4994066;28;20093;-61
2024/02/15 09:14:56;;;;;;;17.98;8.63;;;;;;;-6.90;58.37;100519.38;4993679;28;20046;-61
2024/02/15 09:17:22;;;;;;;14.52;8.10;;;;;;;-6.90;58.22;100516.78;4995331;28;20042;-62
2024/02/15 09:19:51;;;;;;;20.58;8.98;;;;;;;-6.89;58.68;100515.84;4993919;28;20038;-63
2024/02/15 09:22:18;;;;;;;21.58;9.52;;;;;;;-7.00;58.71;100522.63;4995078;28;20134;-63
2024/02/15 09:24:44;;;;;;;23.42;9.60;;;;;;;-7.02;58.62;100511.59;4993443;28;20061;-62
2024/02/15 09:27:11;;;;;;;22.52;9.30;;;;;;;-6.95;58.66;100526.56;4994963;28;20050;-62
2024/02/15 09:29:38;;;;;;;19.48;8.73;;;;;;;-6.99;59.53;100526.88;4993437;28;20048;-62
2024/02/15 09:32:04;;;;;;;25.23;10.10;;;;;;;-7.16;58.86;100521.00;4995207;28;20050;-61
2024/02/15 09:39:08;;;;;;;17.30;7.68;;;;;;;-7.67;59.57;100527.63;4991978;28;20046;-61
2024/02/15 09:41:34;;;;;;;17.75;7.57;;;;;;;-7.62;59.38;100521.25;4993783;28;20109;-62
2024/02/15 09:44:01;;;;;;;14.18;7.88;;;;;;;-7.60;60.55;100516.84;4994792;28;20046;-60
2024/02/15 09:46:27;;;;;;;22.02;8.45;;;;;;;-7.58;60.32;100524.50;4994993;28;20072;-60
2024/02/15 09:48:58;;;;;;;20.88;8.13;;;;;;;-7.56;60.75;100536.38;4994151;28;20055;-62
2024/02/15 09:51:26;;;;;;;17.70;8.50;;;;;;;-7.64;60.40;100530.03;4977207;28;20042;-61
2024/02/15 09:53:53;;;;;;;18.13;9.13;;;;;;;-7.46;61.86;100536.63;4994626;28;20062;-60
2024/02/15 09:56:21;;;;;;;20.30;9.48;;;;;;;-7.33;60.65;100536.69;4994580;28;20053;-63
2024/02/15 09:58:47;;;;;;;16.95;9.10;;;;;;;-7.35;60.19;100541.94;4976521;28;20046;-62
2024/02/15 10:01:13;;;;;;;19.52;9.63;;;;;;;-7.34;60.72;100530.72;4993306;28;20111;-60
2024/02/15 10:03:41;;;;;;;14.48;8.18;;;;;;;-7.36;60.76;100529.16;5009339;28;20043;-62
2024/02/15 10:06:07;;;;;;;17.73;9.38;;;;;;;-7.21;61.26;100540.25;4976301;28;20046;-62
2024/02/15 10:08:33;;;;;;;15.63;7.65;;;;;;;-7.31;59.96;100540.00;4994153;28;20064;-60
2024/02/15 10:11:09;;;;;;;18.27;8.88;;;;;;;-7.10;60.35;100536.09;4994339;28;20559;-61
2024/02/15 10:13:36;;;;;;;16.90;9.00;;;;;;;-6.98;61.14;100543.97;4960757;28;20065;-61
2024/02/15 10:16:19;;;;;;;12.00;7.32;;;;;;;-6.75;58.84;100545.09;4994227;28;20508;-62
2024/02/15 10:18:49;;;;;;;20.17;7.85;;;;;;;-6.81;58.59;100542.91;4992828;28;20054;-61
2024/02/15 10:21:26;;;;;;;24.08;9.60;;;;;;;-6.77;60.15;100549.53;4977073;28;20038;-59
2024/02/15 10:24:08;;;;;;;24.35;8.55;;;;;;;-6.55;59.24;100542.06;4994013;28;20050;-59
2024/02/15 10:26:35;;;;;;;17.80;8.68;;;;;;;-6.36;58.98;100544.28;4976644;28;20416;-61
2024/02/15 10:29:11;;;;;;;20.35;9.43;;;;;;;-6.34;59.43;100554.50;4993987;28;20050;-61
2024/02/15 10:31:38;;;;;;;17.15;8.13;;;;;;;-6.33;57.63;100548.41;4992619;28;20057;-60
2024/02/15 10:34:05;;;;;;;15.43;8.35;;;;;;;-6.12;58.86;100549.56;4989315;28;20501;-60
2024/02/15 10:36:34;;;;;;;18.17;8.48;;;;;;;-6.00;58.19;100548.78;4974587;28;20055;-60
2024/02/15 10:39:27;;;;;;;20.25;9.48;;;;;;;-5.93;58.25;100547.38;4989386;28;20555;-61
2024/02/15 10:41:54;;;;;;;21.90;9.23;;;;;;;-5.98;56.61;100544.31;4990617;28;20048;-61
2024/02/15 10:44:22;;;;;;;15.43;8.70;;;;;;;-6.07;57.41;100547.50;4993669;28;20050;-61
2024/02/15 10:46:52;;;;;;;15.77;8.45;;;;;;;-6.27;57.30;100553.16;4992339;28;20133;-59
2024/02/15 10:49:19;;;;;;;18.73;8.68;;;;;;;-6.37;57.26;100544.38;4993203;28;20519;-60
2024/02/15 10:51:50;;;;;;;17.33;8.70;;;;;;;-6.47;57.36;100532.09;4992119;28;20077;-62
2024/02/15 10:54:44;;;;;;;18.55;8.27;;;;;;;-6.50;56.92;100544.34;4992129;28;20038;-61
2024/02/15 10:57:16;;;;;;;21.42;9.02;;;;;;;-6.47;57.28;100545.00;4992639;28;20078;-61
2024/02/15 11:00:19;;;;;;;20.08;8.88;;;;;;;-6.48;58.35;100542.50;4974821;28;20050;-60
2024/02/15 11:02:53;;;;;;;18.70;8.65;;;;;;;-6.41;57.09;100536.03;4968056;28;20138;-61
2024/02/15 11:05:23;;;;;;;15.10;8.45;;;;;;;-6.17;57.51;100544.72;4974982;28;20133;-60
2024/02/15 11:07:49;;;;;;;21.83;9.02;;;;;;;-6.22;56.12;100544.19;4992096;28;20068;-63
2024/02/15 11:10:17;;;;;;;17.80;8.90;;;;;;;-6.30;56.85;100543.03;4991864;28;20050;-62
2024/02/15 11:12:43;;;;;;;19.98;8.80;;;;;;;-6.34;56.20;100549.34;4991815;28;20531;-60
2024/02/15 11:15:09;;;;;;;16.52;9.48;;;;;;;-6.38;55.78;100547.88;4991769;28;20046;-61
2024/02/15 11:17:43;;;;;;;18.23;9.18;;;;;;;-6.44;56.26;100546.53;4991350;28;20500;-60
2024/02/15 11:20:12;;;;;;;16.92;8.60;;;;;;;-6.43;56.45;100554.16;4992897;28;20057;-59
2024/02/15 11:22:42;;;;;;;20.67;9.80;;;;;;;-6.46;57.25;100556.13;4992749;28;20496;-59
2024/02/15 11:25:15;;;;;;;19.17;8.80;;;;;;;-6.37;56.61;100552.13;4992787;28;20099;-60
2024/02/15 11:27:41;;;;;;;18.17;8.55;;;;;;;-6.49;56.91;100562.31;4992749;28;20042;-61
2024/02/15 11:30:12;;;;;;;22.40;9.68;;;;;;;-6.52;58.02;100566.84;4991309;28;20050;-62
2024/02/15 11:32:39;;;;;;;17.02;8.25;;;;;;;-6.67;56.56;100566.09;4987976;28;20412;-61
2024/02/15 11:35:13;;;;;;;15.30;8.68;;;;;;;-6.66;57.77;100558.22;4973484;28;20133;-60